createdAt,value
2019-05-17T00:00:07.576Z,99.90
2019-05-17T00:02:37.455Z,99.90
2019-05-17T00:05:07.107Z,99.90
2019-05-17T00:07:36.865Z,99.90
2019-05-17T00:10:06.916Z,99.90
2019-05-17T00:12:36.989Z,99.90
2019-05-17T00:15:07.252Z,99.90
2019-05-17T00:17:37.615Z,99.90
2019-05-17T00:20:37.495Z,99.90
2019-05-17T00:23:07.013Z,99.90
2019-05-17T00:25:37.210Z,99.90
2019-05-17T00:28:07.315Z,99.90
2019-05-17T00:30:37.349Z,99.90
2019-05-17T00:33:07.761Z,99.90
2019-05-17T00:35:37.818Z,99.90
2019-05-17T00:38:07.083Z,99.90
2019-05-17T00:40:36.801Z,99.90
2019-05-17T00:43:06.937Z,99.90
2019-05-17T00:45:37.630Z,99.90
2019-05-17T00:48:07.054Z,99.90
2019-05-17T00:50:39.281Z,99.90
2019-05-17T00:53:08.501Z,99.90
2019-05-17T00:55:37.557Z,99.90
2019-05-17T00:58:07.031Z,99.90
2019-05-17T01:00:37.585Z,99.90
2019-05-17T01:03:07.348Z,99.90
2019-05-17T01:05:37.101Z,99.90
2019-05-17T01:08:07.209Z,99.90
2019-05-17T01:10:37.110Z,99.90
2019-05-17T01:13:06.924Z,99.90
2019-05-17T01:15:36.906Z,99.90
2019-05-17T01:18:07.317Z,99.90
2019-05-17T01:20:37.297Z,99.90
2019-05-17T01:23:07.622Z,99.90
2019-05-17T01:25:37.494Z,99.90
2019-05-17T01:28:07.553Z,99.90
2019-05-17T01:30:37.660Z,99.90
2019-05-17T01:33:07.102Z,99.90
2019-05-17T01:35:37.512Z,99.90
2019-05-17T01:38:07.513Z,99.90
2019-05-17T01:40:37.404Z,99.90
2019-05-17T01:43:07.847Z,99.90
2019-05-17T01:45:37.529Z,99.90
2019-05-17T01:48:07.304Z,99.90
2019-05-17T01:50:37.431Z,99.90
2019-05-17T01:53:07.400Z,99.90
2019-05-17T01:55:37.573Z,99.90
2019-05-17T01:58:07.643Z,99.90
2019-05-17T02:00:37.592Z,99.90
2019-05-17T02:03:07.414Z,99.90
2019-05-17T02:05:37.437Z,99.90
2019-05-17T02:08:07.063Z,99.90
2019-05-17T02:10:37.505Z,99.90
2019-05-17T02:13:07.000Z,99.90
2019-05-17T02:15:37.880Z,99.90
2019-05-17T02:18:07.339Z,99.90
2019-05-17T02:20:37.366Z,99.90
2019-05-17T02:23:07.355Z,99.90
2019-05-17T02:25:37.003Z,99.90
2019-05-17T02:28:06.252Z,99.90
2019-05-17T02:30:35.457Z,99.90
2019-05-17T02:33:04.744Z,99.90
2019-05-17T02:35:34.370Z,99.90
2019-05-17T02:38:03.553Z,99.90
2019-05-17T02:40:33.919Z,99.90
2019-05-17T02:43:03.705Z,99.90
2019-05-17T02:45:33.374Z,99.90
2019-05-17T02:48:03.847Z,99.90
2019-05-17T02:50:33.575Z,99.90
2019-05-17T02:53:04.544Z,99.90
2019-05-17T02:55:33.598Z,99.90
2019-05-17T02:58:03.460Z,99.90
2019-05-17T03:00:33.846Z,99.90
2019-05-17T03:03:03.954Z,99.90
2019-05-17T03:05:34.051Z,99.90
2019-05-17T03:08:04.677Z,99.90
2019-05-17T03:10:43.005Z,99.90
2019-05-17T03:13:32.946Z,99.90
2019-05-17T03:16:14.304Z,99.90
2019-05-17T03:18:39.569Z,99.90
2019-05-17T03:21:08.431Z,99.90
2019-05-17T03:23:37.556Z,99.90
2019-05-17T03:26:06.437Z,99.90
2019-05-17T03:28:35.297Z,99.90
2019-05-17T03:31:08.212Z,99.90
2019-05-17T03:33:36.893Z,99.90
2019-05-17T03:36:07.288Z,99.90
2019-05-17T03:38:36.648Z,99.90
2019-05-17T03:41:17.696Z,99.90
2019-05-17T03:43:39.991Z,99.90
2019-05-17T03:46:07.039Z,99.90
2019-05-17T03:48:36.018Z,99.90
2019-05-17T03:51:04.909Z,99.90
2019-05-17T03:53:33.962Z,99.90
2019-05-17T03:56:03.218Z,99.90
2019-05-17T03:58:35.345Z,99.90
2019-05-17T04:01:04.540Z,99.90
2019-05-17T04:03:39.036Z,99.90
2019-05-17T04:06:13.346Z,99.90
2019-05-17T04:08:54.074Z,99.90
2019-05-17T04:11:31.795Z,99.90
2019-05-17T04:14:02.588Z,99.90
2019-05-17T04:16:33.682Z,99.90
2019-05-17T04:19:07.128Z,99.90
2019-05-17T04:21:44.860Z,99.90
2019-05-17T04:24:23.068Z,99.90
2019-05-17T04:26:52.621Z,99.90
2019-05-17T04:29:25.492Z,99.90
2019-05-17T04:32:04.955Z,99.90
2019-05-17T04:34:34.585Z,99.90
2019-05-17T04:37:12.882Z,99.90
2019-05-17T04:39:43.191Z,99.90
2019-05-17T04:42:22.925Z,99.90
2019-05-17T04:45:07.093Z,99.90
2019-05-17T04:47:36.338Z,99.90
2019-05-17T04:50:06.231Z,99.90
2019-05-17T04:52:35.465Z,99.90
2019-05-17T04:55:04.647Z,99.90
2019-05-17T04:57:33.499Z,99.90
2019-05-17T05:00:04.304Z,99.90
2019-05-17T05:02:44.505Z,99.90
2019-05-17T05:05:14.343Z,99.90
2019-05-17T05:07:43.828Z,99.90
2019-05-17T05:10:14.003Z,99.90
2019-05-17T05:12:44.529Z,99.90
2019-05-17T05:15:23.290Z,99.90
2019-05-17T05:17:52.747Z,99.90
2019-05-17T05:20:22.212Z,99.90
2019-05-17T05:22:52.683Z,99.90
2019-05-17T05:25:22.611Z,99.90
2019-05-17T05:27:51.697Z,99.90
2019-05-17T05:30:22.557Z,99.90
2019-05-17T05:32:52.480Z,99.90
2019-05-17T05:35:22.473Z,99.90
2019-05-17T05:37:52.608Z,99.90
2019-05-17T05:40:21.598Z,99.90
2019-05-17T05:42:51.578Z,99.90
2019-05-17T05:45:22.511Z,99.90
2019-05-17T05:47:52.166Z,99.90
2019-05-17T05:50:21.811Z,99.90
2019-05-17T05:52:52.398Z,99.90
2019-05-17T05:55:23.402Z,99.90
2019-05-17T05:57:52.250Z,99.90
2019-05-17T06:00:22.109Z,99.90
2019-05-17T06:02:52.283Z,99.90
2019-05-17T06:05:21.911Z,99.90
2019-05-17T06:07:52.186Z,99.90
2019-05-17T06:10:21.904Z,99.90
2019-05-17T06:12:51.743Z,99.90
2019-05-17T06:15:21.935Z,99.90
2019-05-17T06:17:51.989Z,99.90
2019-05-17T06:20:22.443Z,99.90
2019-05-17T06:22:51.875Z,99.90
2019-05-17T06:25:23.409Z,99.90
2019-05-17T06:27:52.058Z,99.90
2019-05-17T06:30:22.083Z,99.90
2019-05-17T06:32:51.801Z,99.90
2019-05-17T06:35:21.793Z,99.90
2019-05-17T06:37:50.746Z,99.90
2019-05-17T06:40:21.602Z,99.90
2019-05-17T06:42:52.376Z,99.90
2019-05-17T06:45:22.063Z,99.90
2019-05-17T06:47:51.882Z,99.90
2019-05-17T06:50:23.489Z,99.90
2019-05-17T06:52:53.308Z,99.90
2019-05-17T06:55:24.201Z,99.90
2019-05-17T06:57:52.852Z,99.90
2019-05-17T07:00:23.944Z,99.90
2019-05-17T07:02:52.371Z,99.90
2019-05-17T07:05:24.923Z,99.90
2019-05-17T07:07:53.872Z,99.90
2019-05-17T07:10:23.062Z,99.90
2019-05-17T07:12:58.569Z,99.90
2019-05-17T07:15:22.463Z,99.90
2019-05-17T07:17:51.656Z,99.90
2019-05-17T07:20:20.610Z,99.90
2019-05-17T07:22:50.748Z,99.90
2019-05-17T07:25:19.919Z,99.90
2019-05-17T07:27:50.331Z,99.90
2019-05-17T07:30:20.266Z,99.90
2019-05-17T07:32:49.764Z,99.90
2019-05-17T07:35:19.734Z,99.90
2019-05-17T07:37:50.187Z,99.90
2019-05-17T07:40:19.935Z,99.90
2019-05-17T07:42:50.118Z,99.20
2019-05-17T07:45:20.338Z,99.90
2019-05-17T07:47:49.583Z,99.90
2019-05-17T07:50:20.089Z,99.90
2019-05-17T07:52:50.231Z,99.90
2019-05-17T07:55:22.840Z,99.90
2019-05-17T07:57:49.977Z,99.70
2019-05-17T08:00:20.114Z,99.60
2019-05-17T08:02:50.478Z,97.40
2019-05-17T08:05:21.432Z,97.50
2019-05-17T08:07:50.470Z,96.70
2019-05-17T08:10:20.640Z,97.70
2019-05-17T08:12:49.988Z,96.00
2019-05-17T08:15:19.786Z,96.30
2019-05-17T08:17:50.236Z,96.40
2019-05-17T08:20:20.352Z,96.30
2019-05-17T08:22:50.214Z,97.30
2019-05-17T08:25:20.059Z,96.10
2019-05-17T08:27:50.362Z,95.80
2019-05-17T08:30:20.644Z,97.40
2019-05-17T08:32:50.572Z,95.00
2019-05-17T08:35:19.867Z,93.70
2019-05-17T08:37:49.875Z,95.40
2019-05-17T08:40:19.979Z,91.90
2019-05-17T08:42:49.896Z,92.20
2019-05-17T08:45:20.669Z,92.00
2019-05-17T08:47:50.120Z,87.80
2019-05-17T08:50:20.070Z,90.30
2019-05-17T08:52:49.634Z,93.40
2019-05-17T08:55:20.484Z,90.20
2019-05-17T08:57:50.056Z,88.20
2019-05-17T09:00:20.665Z,90.20
2019-05-17T09:02:50.069Z,86.10
2019-05-17T09:05:21.097Z,86.20
2019-05-17T09:07:49.514Z,87.10
2019-05-17T09:10:20.787Z,83.30
2019-05-17T09:12:50.230Z,85.10
2019-05-17T09:15:20.319Z,89.40
2019-05-17T09:17:49.891Z,88.20
2019-05-17T09:20:20.446Z,82.20
2019-05-17T09:22:51.057Z,84.60
2019-05-17T09:25:22.019Z,81.40
2019-05-17T09:27:50.795Z,79.70
2019-05-17T09:30:21.083Z,80.10
2019-05-17T09:32:50.362Z,79.90
2019-05-17T09:35:20.819Z,74.00
2019-05-17T09:37:49.987Z,74.00
2019-05-17T09:40:19.984Z,72.40
2019-05-17T09:42:49.900Z,76.30
2019-05-17T09:45:20.149Z,71.70
2019-05-17T09:47:50.553Z,68.00
2019-05-17T09:50:20.086Z,68.40
2019-05-17T09:52:49.588Z,61.40
2019-05-17T09:55:19.576Z,54.80
2019-05-17T09:57:49.629Z,56.00
2019-05-17T10:00:20.864Z,58.90
2019-05-17T10:02:50.770Z,56.20
2019-05-17T10:05:20.289Z,57.00
2019-05-17T10:07:50.685Z,58.50
2019-05-17T10:10:20.470Z,52.10
2019-05-17T10:12:49.930Z,56.00
2019-05-17T10:15:20.713Z,56.80
2019-05-17T10:17:49.561Z,54.70
2019-05-17T10:20:20.002Z,50.70
2019-05-17T10:22:50.347Z,50.50
2019-05-17T10:25:20.085Z,53.70
2019-05-17T10:27:49.805Z,50.10
2019-05-17T10:30:20.923Z,50.70
2019-05-17T10:32:50.579Z,49.00
2019-05-17T10:35:20.285Z,46.80
2019-05-17T10:37:50.618Z,49.70
2019-05-17T10:40:20.813Z,49.90
2019-05-17T10:42:50.144Z,44.60
2019-05-17T10:45:19.929Z,46.60
2019-05-17T10:47:50.276Z,46.10
2019-05-17T10:50:20.605Z,47.00
2019-05-17T10:52:50.148Z,43.10
2019-05-17T10:55:19.986Z,45.50
2019-05-17T10:57:50.029Z,49.80
2019-05-17T11:00:19.925Z,46.50
2019-05-17T11:02:50.310Z,47.60
2019-05-17T11:05:20.096Z,47.00
2019-05-17T11:07:50.393Z,44.30
2019-05-17T11:10:19.704Z,42.10
2019-05-17T11:12:48.485Z,41.40
2019-05-17T11:15:17.402Z,42.00
2019-05-17T11:17:46.188Z,41.80
2019-05-17T11:20:15.718Z,42.80
2019-05-17T11:22:44.555Z,40.80
2019-05-17T11:25:14.643Z,41.50
2019-05-17T11:27:43.403Z,39.60
2019-05-17T11:30:13.007Z,36.40
2019-05-17T11:32:42.061Z,37.20
2019-05-17T11:35:10.991Z,37.40
2019-05-17T11:37:39.761Z,39.20
2019-05-17T11:40:09.500Z,36.10
2019-05-17T11:42:38.242Z,38.50
2019-05-17T11:45:07.426Z,38.10
2019-05-17T11:47:36.306Z,38.10
2019-05-17T11:50:05.791Z,38.10
2019-05-17T11:52:34.850Z,39.10
2019-05-17T11:55:03.697Z,38.80
2019-05-17T11:57:32.494Z,36.90
2019-05-17T12:00:01.306Z,39.00
2019-05-17T12:02:30.228Z,39.60
2019-05-17T12:04:58.999Z,35.80
2019-05-17T12:07:28.332Z,36.00
2019-05-17T12:09:57.196Z,37.10
2019-05-17T12:12:25.979Z,39.00
2019-05-17T12:14:55.031Z,38.10
2019-05-17T12:17:23.883Z,34.60
2019-05-17T12:19:52.722Z,37.70
2019-05-17T12:22:21.533Z,36.70
2019-05-17T12:24:50.382Z,34.10
2019-05-17T12:27:19.309Z,34.90
2019-05-17T12:29:48.119Z,37.50
2019-05-17T12:32:18.073Z,36.10
2019-05-17T12:34:46.926Z,34.70
2019-05-17T12:37:15.708Z,33.90
2019-05-17T12:39:44.514Z,33.60
2019-05-17T12:42:13.362Z,32.40
2019-05-17T12:44:42.240Z,32.70
2019-05-17T12:47:11.100Z,31.20
2019-05-17T12:49:39.950Z,32.50
2019-05-17T12:52:08.839Z,32.50
2019-05-17T12:54:37.620Z,32.60
2019-05-17T12:57:06.455Z,31.30
2019-05-17T12:59:35.415Z,35.00
2019-05-17T13:02:04.270Z,32.10
2019-05-17T13:04:33.170Z,30.30
2019-05-17T13:07:02.054Z,31.00
2019-05-17T13:09:30.811Z,31.30
2019-05-17T13:11:59.600Z,32.50
2019-05-17T13:14:28.375Z,33.80
2019-05-17T13:16:57.204Z,31.90
2019-05-17T13:19:26.230Z,32.70
2019-05-17T13:21:54.991Z,30.30
2019-05-17T13:24:23.854Z,30.20
2019-05-17T13:26:52.660Z,29.80
2019-05-17T13:29:21.454Z,29.80
2019-05-17T13:31:50.243Z,33.40
2019-05-17T13:34:19.097Z,33.90
2019-05-17T13:36:48.246Z,32.80
2019-05-17T13:39:17.056Z,32.00
2019-05-17T13:41:46.012Z,30.10
2019-05-17T13:44:14.850Z,28.90
2019-05-17T13:46:43.718Z,30.40
2019-05-17T13:49:12.492Z,29.90
2019-05-17T13:51:41.277Z,33.00
2019-05-17T13:54:10.166Z,33.60
2019-05-17T13:56:38.962Z,32.70
2019-05-17T13:59:07.855Z,32.10
2019-05-17T14:01:36.604Z,30.10
2019-05-17T14:04:05.513Z,32.40
2019-05-17T14:06:34.333Z,31.60
2019-05-17T14:09:03.666Z,32.80
2019-05-17T14:11:32.442Z,30.30
2019-05-17T14:14:01.353Z,29.80
2019-05-17T14:16:44.374Z,29.90
2019-05-17T14:19:13.232Z,28.50
2019-05-17T14:21:42.150Z,28.60
2019-05-17T14:24:10.997Z,28.90
2019-05-17T14:26:39.771Z,29.10
2019-05-17T14:29:08.590Z,30.00
2019-05-17T14:31:37.471Z,29.80
2019-05-17T14:34:06.276Z,28.80
2019-05-17T14:36:35.150Z,28.30
2019-05-17T14:39:04.601Z,29.80
2019-05-17T14:41:33.335Z,31.40
2019-05-17T14:44:02.596Z,30.10
2019-05-17T14:46:31.390Z,30.50
2019-05-17T14:49:00.160Z,28.80
2019-05-17T14:51:29.271Z,28.30
2019-05-17T14:53:58.131Z,27.70
2019-05-17T14:56:27.096Z,28.30
2019-05-17T14:58:55.855Z,28.10
2019-05-17T15:01:24.654Z,27.60
2019-05-17T15:03:53.523Z,28.20
2019-05-17T15:06:22.370Z,28.30
2019-05-17T15:08:51.506Z,28.60
2019-05-17T15:11:20.399Z,29.10
2019-05-17T15:13:49.223Z,29.10
2019-05-17T15:16:18.023Z,27.50
2019-05-17T15:18:46.890Z,30.00
2019-05-17T15:21:15.713Z,28.80
2019-05-17T15:23:44.543Z,28.30
2019-05-17T15:26:13.624Z,28.40
2019-05-17T15:28:42.513Z,26.80
2019-05-17T15:31:11.424Z,26.70
2019-05-17T15:33:40.242Z,28.50
2019-05-17T15:36:09.045Z,28.00
2019-05-17T15:38:37.883Z,28.30
2019-05-17T15:41:07.100Z,28.40
2019-05-17T15:43:35.972Z,28.80
2019-05-17T15:46:04.935Z,29.50
2019-05-17T15:48:33.887Z,28.70
2019-05-17T15:51:02.749Z,27.80
2019-05-17T15:53:31.905Z,28.00
2019-05-17T15:56:00.949Z,28.70
2019-05-17T15:58:29.752Z,29.30
2019-05-17T16:00:58.877Z,29.30
2019-05-17T16:03:27.752Z,29.60
2019-05-17T16:05:56.633Z,30.20
2019-05-17T16:08:25.420Z,31.20
2019-05-17T16:10:54.299Z,32.20
2019-05-17T16:13:23.143Z,32.20
2019-05-17T16:15:52.076Z,32.30
2019-05-17T16:18:20.965Z,33.80
2019-05-17T16:20:50.384Z,34.00
2019-05-17T16:23:19.243Z,33.80
2019-05-17T16:25:48.056Z,35.90
2019-05-17T16:28:16.843Z,36.60
2019-05-17T16:30:45.643Z,35.10
2019-05-17T16:33:14.535Z,34.30
2019-05-17T16:35:43.332Z,34.10
2019-05-17T16:38:12.191Z,34.70
2019-05-17T16:40:40.956Z,35.10
2019-05-17T16:43:17.601Z,35.20
2019-05-17T16:45:40.427Z,36.80
2019-05-17T16:48:09.488Z,37.90
2019-05-17T16:50:38.442Z,38.20
2019-05-17T16:53:07.407Z,37.90
2019-05-17T16:55:36.531Z,37.90
2019-05-17T16:58:05.470Z,38.00
2019-05-17T17:00:36.595Z,38.70
2019-05-17T17:03:05.935Z,39.50
2019-05-17T17:05:35.384Z,39.00
2019-05-17T17:08:04.550Z,40.50
2019-05-17T17:10:33.484Z,40.90
2019-05-17T17:13:02.445Z,40.20
2019-05-17T17:15:31.436Z,40.70
2019-05-17T17:18:00.398Z,41.50
2019-05-17T17:20:29.318Z,42.50
2019-05-17T17:22:58.202Z,42.60
2019-05-17T17:25:27.749Z,43.40
2019-05-17T17:27:56.653Z,43.20
2019-05-17T17:30:25.504Z,42.90
2019-05-17T17:32:54.397Z,41.60
2019-05-17T17:35:23.275Z,41.20
2019-05-17T17:37:52.239Z,40.00
2019-05-17T17:40:22.921Z,39.70
2019-05-17T17:42:51.847Z,40.30
2019-05-17T17:45:21.535Z,42.10
2019-05-17T17:47:50.478Z,43.00
2019-05-17T17:50:19.419Z,45.10
2019-05-17T17:52:50.478Z,46.10
2019-05-17T17:55:20.288Z,47.50
2019-05-17T17:57:49.314Z,49.30
2019-05-17T18:00:19.446Z,49.40
2019-05-17T18:02:48.404Z,50.30
2019-05-17T18:05:17.728Z,51.60
2019-05-17T18:07:46.647Z,52.20
2019-05-17T18:10:26.709Z,51.30
2019-05-17T18:12:55.545Z,51.70
2019-05-17T18:15:34.806Z,50.60
2019-05-17T18:18:03.630Z,49.70
2019-05-17T18:20:32.559Z,49.00
2019-05-17T18:23:01.357Z,50.40
2019-05-17T18:25:30.202Z,50.70
2019-05-17T18:27:59.095Z,51.50
2019-05-17T18:30:28.129Z,53.30
2019-05-17T18:32:56.977Z,54.80
2019-05-17T18:35:25.911Z,56.50
2019-05-17T18:37:54.737Z,58.70
2019-05-17T18:40:24.607Z,59.90
2019-05-17T18:42:53.971Z,61.60
2019-05-17T18:45:23.079Z,61.90
2019-05-17T18:47:52.284Z,64.80
2019-05-17T18:50:22.744Z,65.40
2019-05-17T18:52:51.884Z,66.10
2019-05-17T18:55:20.788Z,67.50
2019-05-17T18:57:49.643Z,68.70
2019-05-17T19:00:18.893Z,68.90
2019-05-17T19:02:47.734Z,71.00
2019-05-17T19:05:16.666Z,71.50
2019-05-17T19:07:45.514Z,72.00
2019-05-17T19:10:14.623Z,74.10
2019-05-17T19:12:44.237Z,75.10
2019-05-17T19:15:15.233Z,76.30
2019-05-17T19:17:44.228Z,79.10
2019-05-17T19:20:14.452Z,80.10
2019-05-17T19:22:43.401Z,81.50
2019-05-17T19:25:12.447Z,81.80
2019-05-17T19:27:41.235Z,81.40
2019-05-17T19:30:10.911Z,81.40
2019-05-17T19:32:39.675Z,80.90
2019-05-17T19:35:09.672Z,83.20
2019-05-17T19:37:38.471Z,81.80
2019-05-17T19:40:08.417Z,81.70
2019-05-17T19:42:37.278Z,81.90
2019-05-17T19:45:06.623Z,81.70
2019-05-17T19:47:35.395Z,82.00
2019-05-17T19:50:05.044Z,82.10
2019-05-17T19:52:33.806Z,82.60
2019-05-17T19:55:02.792Z,84.00
2019-05-17T19:57:31.557Z,84.60
2019-05-17T20:00:00.358Z,85.40
2019-05-17T20:02:29.226Z,85.70
2019-05-17T20:04:58.056Z,87.60
2019-05-17T20:07:26.998Z,87.30
2019-05-17T20:09:55.739Z,88.30
2019-05-17T20:12:24.527Z,89.40
2019-05-17T20:14:53.402Z,90.30
2019-05-17T20:17:22.166Z,90.20
2019-05-17T20:19:50.966Z,90.80
2019-05-17T20:22:19.901Z,90.60
2019-05-17T20:24:48.772Z,90.60
2019-05-17T20:27:17.599Z,91.30
2019-05-17T20:29:46.379Z,91.50
2019-05-17T20:32:15.306Z,92.50
2019-05-17T20:34:44.133Z,91.80
2019-05-17T20:37:13.014Z,92.40
2019-05-17T20:39:41.817Z,92.80
2019-05-17T20:42:10.687Z,92.50
2019-05-17T20:44:39.514Z,92.70
2019-05-17T20:47:08.274Z,93.40
2019-05-17T20:49:37.055Z,93.80
2019-05-17T20:52:06.143Z,94.40
2019-05-17T20:54:34.934Z,94.80
2019-05-17T20:57:03.803Z,95.80
2019-05-17T20:59:32.567Z,95.70
2019-05-17T21:02:01.411Z,96.10
2019-05-17T21:04:30.455Z,96.50
2019-05-17T21:06:59.428Z,96.80
2019-05-17T21:09:47.519Z,97.00
2019-05-17T21:12:16.404Z,97.70
2019-05-17T21:14:45.215Z,97.40
2019-05-17T21:17:14.005Z,97.60
2019-05-17T21:19:42.882Z,97.80
2019-05-17T21:22:11.688Z,98.00
2019-05-17T21:24:40.484Z,98.00
2019-05-17T21:27:09.660Z,97.80
2019-05-17T21:29:40.902Z,98.40
2019-05-17T21:32:10.246Z,98.40
2019-05-17T21:34:39.056Z,98.90
2019-05-17T21:37:07.902Z,99.30
2019-05-17T21:39:36.743Z,99.30
2019-05-17T21:42:05.579Z,99.90
2019-05-17T21:44:34.440Z,99.40
2019-05-17T21:47:05.010Z,99.60
2019-05-17T21:49:34.029Z,99.90
2019-05-17T21:52:02.807Z,99.80
2019-05-17T21:54:31.575Z,99.70
2019-05-17T21:57:00.362Z,99.90
2019-05-17T21:59:29.201Z,99.90
2019-05-17T22:01:58.380Z,99.90
2019-05-17T22:04:27.225Z,99.90
2019-05-17T22:06:56.054Z,99.90
2019-05-17T22:09:24.855Z,99.90
2019-05-17T22:11:56.207Z,99.90
2019-05-17T22:14:24.991Z,99.90
2019-05-17T22:16:53.867Z,99.90
2019-05-17T22:19:22.666Z,99.90
2019-05-17T22:21:51.532Z,99.90
2019-05-17T22:24:20.364Z,99.90
2019-05-17T22:26:49.147Z,99.90
2019-05-17T22:29:17.977Z,99.90
2019-05-17T22:31:46.758Z,99.90
2019-05-17T22:34:15.637Z,99.90
2019-05-17T22:36:44.506Z,99.90
2019-05-17T22:39:13.463Z,99.90
2019-05-17T22:41:42.418Z,99.90
2019-05-17T22:44:11.275Z,99.90
2019-05-17T22:46:40.058Z,99.90
2019-05-17T22:49:08.851Z,99.90
2019-05-17T22:51:37.795Z,99.90
2019-05-17T22:54:06.818Z,99.90
2019-05-17T22:56:36.198Z,99.90
2019-05-17T22:59:05.042Z,99.90
2019-05-17T23:01:33.969Z,99.90
2019-05-17T23:04:02.845Z,99.90
2019-05-17T23:06:31.914Z,99.90
2019-05-17T23:09:00.739Z,99.90
2019-05-17T23:11:29.554Z,99.90
2019-05-17T23:13:58.365Z,99.90
2019-05-17T23:16:27.146Z,99.90
2019-05-17T23:19:09.052Z,99.90
2019-05-17T23:21:38.290Z,99.90
2019-05-17T23:24:08.143Z,99.90
2019-05-17T23:26:37.064Z,99.90
2019-05-17T23:29:06.034Z,99.90
2019-05-17T23:31:34.907Z,99.90
2019-05-17T23:34:03.893Z,99.90
2019-05-17T23:36:32.758Z,99.90
2019-05-17T23:39:01.552Z,99.90
2019-05-17T23:41:30.447Z,99.90
2019-05-17T23:43:59.310Z,99.90
2019-05-17T23:46:28.158Z,99.90
2019-05-17T23:48:57.068Z,99.90
2019-05-17T23:51:25.938Z,99.90
2019-05-17T23:53:54.812Z,99.90
2019-05-17T23:56:23.702Z,99.90
2019-05-17T23:58:52.546Z,99.90
